sensor_id;sensor_type;location;lat;lon;timestamp;P1;durP1;ratioP1;P2;durP2;ratioP2
43606;SDS011;29197;44.788;10.366;2023-06-24T00:00:10;5.88;;;4.10;;
43606;SDS011;29197;44.788;10.366;2023-06-24T00:02:59;5.18;;;4.13;;
43606;SDS011;29197;44.788;10.366;2023-06-24T00:05:49;7.40;;;4.22;;
43606;SDS011;29197;44.788;10.366;2023-06-24T00:08:38;5.95;;;4.40;;
43606;SDS011;29197;44.788;10.366;2023-06-24T00:11:27;7.45;;;4.50;;
43606;SDS011;29197;44.788;10.366;2023-06-24T00:14:18;5.85;;;4.18;;
43606;SDS011;29197;44.788;10.366;2023-06-24T00:17:08;7.15;;;4.30;;
43606;SDS011;29197;44.788;10.366;2023-06-24T00:19:57;6.57;;;4.70;;
43606;SDS011;29197;44.788;10.366;2023-06-24T00:22:46;6.75;;;4.18;;
43606;SDS011;29197;44.788;10.366;2023-06-24T00:25:35;8.20;;;4.22;;
43606;SDS011;29197;44.788;10.366;2023-06-24T00:28:24;5.90;;;4.10;;
43606;SDS011;29197;44.788;10.366;2023-06-24T00:31:14;6.55;;;4.18;;
43606;SDS011;29197;44.788;10.366;2023-06-24T00:34:02;8.35;;;4.60;;
43606;SDS011;29197;44.788;10.366;2023-06-24T00:36:51;6.05;;;4.10;;
43606;SDS011;29197;44.788;10.366;2023-06-24T00:39:39;8.18;;;4.97;;
43606;SDS011;29197;44.788;10.366;2023-06-24T00:42:28;7.15;;;4.50;;
43606;SDS011;29197;44.788;10.366;2023-06-24T00:45:17;7.72;;;4.68;;
43606;SDS011;29197;44.788;10.366;2023-06-24T00:48:07;7.18;;;4.72;;
43606;SDS011;29197;44.788;10.366;2023-06-24T00:50:56;10.10;;;4.93;;
43606;SDS011;29197;44.788;10.366;2023-06-24T00:53:45;9.63;;;4.97;;
43606;SDS011;29197;44.788;10.366;2023-06-24T00:56:34;10.35;;;5.18;;
43606;SDS011;29197;44.788;10.366;2023-06-24T00:59:25;5.97;;;4.70;;
43606;SDS011;29197;44.788;10.366;2023-06-24T01:02:18;8.32;;;4.13;;
43606;SDS011;29197;44.788;10.366;2023-06-24T01:05:09;4.90;;;4.30;;
43606;SDS011;29197;44.788;10.366;2023-06-24T01:07:59;6.75;;;4.10;;
43606;SDS011;29197;44.788;10.366;2023-06-24T01:10:48;6.13;;;4.82;;
43606;SDS011;29197;44.788;10.366;2023-06-24T01:13:37;6.50;;;4.40;;
43606;SDS011;29197;44.788;10.366;2023-06-24T01:16:28;5.15;;;4.05;;
43606;SDS011;29197;44.788;10.366;2023-06-24T01:19:31;6.28;;;4.15;;
43606;SDS011;29197;44.788;10.366;2023-06-24T01:22:46;5.85;;;4.30;;
43606;SDS011;29197;44.788;10.366;2023-06-24T01:26:03;7.15;;;4.22;;
43606;SDS011;29197;44.788;10.366;2023-06-24T01:29:09;8.15;;;4.55;;
43606;SDS011;29197;44.788;10.366;2023-06-24T01:32:00;9.43;;;5.25;;
43606;SDS011;29197;44.788;10.366;2023-06-24T01:34:52;8.70;;;6.03;;
43606;SDS011;29197;44.788;10.366;2023-06-24T01:37:42;8.60;;;4.43;;
43606;SDS011;29197;44.788;10.366;2023-06-24T01:40:35;5.57;;;4.22;;
43606;SDS011;29197;44.788;10.366;2023-06-24T01:43:27;5.63;;;4.40;;
43606;SDS011;29197;44.788;10.366;2023-06-24T01:46:16;9.55;;;5.25;;
43606;SDS011;29197;44.788;10.366;2023-06-24T01:49:11;6.65;;;4.50;;
43606;SDS011;29197;44.788;10.366;2023-06-24T01:52:00;8.02;;;4.78;;
43606;SDS011;29197;44.788;10.366;2023-06-24T01:54:49;9.80;;;5.20;;
43606;SDS011;29197;44.788;10.366;2023-06-24T01:57:38;7.88;;;5.20;;
43606;SDS011;29197;44.788;10.366;2023-06-24T02:00:28;12.82;;;5.63;;
43606;SDS011;29197;44.788;10.366;2023-06-24T02:03:17;6.70;;;4.90;;
43606;SDS011;29197;44.788;10.366;2023-06-24T02:06:09;8.68;;;5.05;;
43606;SDS011;29197;44.788;10.366;2023-06-24T02:08:58;8.95;;;5.45;;
43606;SDS011;29197;44.788;10.366;2023-06-24T02:11:50;7.47;;;5.25;;
43606;SDS011;29197;44.788;10.366;2023-06-24T02:14:39;7.65;;;4.82;;
43606;SDS011;29197;44.788;10.366;2023-06-24T02:17:29;10.38;;;5.22;;
43606;SDS011;29197;44.788;10.366;2023-06-24T02:20:17;8.07;;;6.53;;
43606;SDS011;29197;44.788;10.366;2023-06-24T02:23:09;8.98;;;5.90;;
43606;SDS011;29197;44.788;10.366;2023-06-24T02:25:59;8.32;;;5.97;;
43606;SDS011;29197;44.788;10.366;2023-06-24T02:28:48;10.60;;;5.63;;
43606;SDS011;29197;44.788;10.366;2023-06-24T02:31:38;9.35;;;6.97;;
43606;SDS011;29197;44.788;10.366;2023-06-24T02:34:27;12.82;;;7.03;;
43606;SDS011;29197;44.788;10.366;2023-06-24T02:37:16;6.82;;;5.22;;
43606;SDS011;29197;44.788;10.366;2023-06-24T02:40:07;6.53;;;4.90;;
43606;SDS011;29197;44.788;10.366;2023-06-24T02:42:57;6.38;;;4.55;;
43606;SDS011;29197;44.788;10.366;2023-06-24T02:45:45;15.07;;;6.50;;
43606;SDS011;29197;44.788;10.366;2023-06-24T02:48:36;10.75;;;5.53;;
43606;SDS011;29197;44.788;10.366;2023-06-24T02:51:26;8.13;;;4.68;;
43606;SDS011;29197;44.788;10.366;2023-06-24T02:54:15;6.90;;;5.20;;
43606;SDS011;29197;44.788;10.366;2023-06-24T02:57:06;8.18;;;5.13;;
43606;SDS011;29197;44.788;10.366;2023-06-24T02:59:55;13.75;;;5.88;;
43606;SDS011;29197;44.788;10.366;2023-06-24T03:02:44;6.38;;;4.85;;
43606;SDS011;29197;44.788;10.366;2023-06-24T03:05:34;5.82;;;4.38;;
43606;SDS011;29197;44.788;10.366;2023-06-24T03:08:24;8.93;;;4.90;;
43606;SDS011;29197;44.788;10.366;2023-06-24T03:11:13;6.47;;;4.20;;
43606;SDS011;29197;44.788;10.366;2023-06-24T03:14:03;7.68;;;4.72;;
43606;SDS011;29197;44.788;10.366;2023-06-24T03:16:52;8.82;;;4.80;;
43606;SDS011;29197;44.788;10.366;2023-06-24T03:19:41;9.70;;;5.10;;
43606;SDS011;29197;44.788;10.366;2023-06-24T03:22:30;6.55;;;4.53;;
43606;SDS011;29197;44.788;10.366;2023-06-24T03:25:19;7.35;;;4.63;;
43606;SDS011;29197;44.788;10.366;2023-06-24T03:28:08;6.85;;;4.57;;
43606;SDS011;29197;44.788;10.366;2023-06-24T03:30:58;8.38;;;4.88;;
43606;SDS011;29197;44.788;10.366;2023-06-24T03:33:47;6.10;;;4.30;;
43606;SDS011;29197;44.788;10.366;2023-06-24T03:36:36;5.05;;;3.92;;
43606;SDS011;29197;44.788;10.366;2023-06-24T03:39:26;6.63;;;4.63;;
43606;SDS011;29197;44.788;10.366;2023-06-24T03:42:15;6.00;;;4.50;;
43606;SDS011;29197;44.788;10.366;2023-06-24T03:45:04;6.18;;;4.15;;
43606;SDS011;29197;44.788;10.366;2023-06-24T03:47:54;5.50;;;4.10;;
43606;SDS011;29197;44.788;10.366;2023-06-24T03:50:43;7.15;;;4.82;;
43606;SDS011;29197;44.788;10.366;2023-06-24T03:53:32;8.15;;;4.97;;
43606;SDS011;29197;44.788;10.366;2023-06-24T03:56:20;6.50;;;4.68;;
43606;SDS011;29197;44.788;10.366;2023-06-24T03:59:09;7.53;;;4.78;;
43606;SDS011;29197;44.788;10.366;2023-06-24T04:01:59;6.68;;;4.55;;
43606;SDS011;29197;44.788;10.366;2023-06-24T04:04:49;6.93;;;4.43;;
43606;SDS011;29197;44.788;10.366;2023-06-24T04:07:38;6.43;;;4.97;;
43606;SDS011;29197;44.788;10.366;2023-06-24T04:10:27;8.95;;;4.57;;
43606;SDS011;29197;44.788;10.366;2023-06-24T04:13:16;8.38;;;5.47;;
43606;SDS011;29197;44.788;10.366;2023-06-24T04:16:05;6.75;;;4.47;;
43606;SDS011;29197;44.788;10.366;2023-06-24T04:18:53;6.43;;;5.32;;
43606;SDS011;29197;44.788;10.366;2023-06-24T04:21:43;9.07;;;5.53;;
43606;SDS011;29197;44.788;10.366;2023-06-24T04:24:32;10.40;;;5.50;;
43606;SDS011;29197;44.788;10.366;2023-06-24T04:27:21;8.27;;;5.60;;
43606;SDS011;29197;44.788;10.366;2023-06-24T04:30:10;10.95;;;6.90;;
43606;SDS011;29197;44.788;10.366;2023-06-24T04:32:59;13.38;;;6.90;;
43606;SDS011;29197;44.788;10.366;2023-06-24T04:35:48;8.35;;;5.13;;
43606;SDS011;29197;44.788;10.366;2023-06-24T04:38:39;9.05;;;6.22;;
43606;SDS011;29197;44.788;10.366;2023-06-24T04:41:28;9.20;;;5.80;;
43606;SDS011;29197;44.788;10.366;2023-06-24T04:44:16;11.32;;;6.45;;
43606;SDS011;29197;44.788;10.366;2023-06-24T04:47:06;10.88;;;7.13;;
43606;SDS011;29197;44.788;10.366;2023-06-24T04:49:55;9.30;;;5.78;;
43606;SDS011;29197;44.788;10.366;2023-06-24T04:52:44;8.45;;;5.40;;
43606;SDS011;29197;44.788;10.366;2023-06-24T04:55:34;9.30;;;5.75;;
43606;SDS011;29197;44.788;10.366;2023-06-24T04:58:23;9.60;;;5.80;;
43606;SDS011;29197;44.788;10.366;2023-06-24T05:01:12;7.05;;;5.80;;
43606;SDS011;29197;44.788;10.366;2023-06-24T05:04:01;8.02;;;5.25;;
43606;SDS011;29197;44.788;10.366;2023-06-24T05:06:49;7.95;;;5.25;;
43606;SDS011;29197;44.788;10.366;2023-06-24T05:09:38;10.18;;;6.20;;
43606;SDS011;29197;44.788;10.366;2023-06-24T05:12:28;5.25;;;4.70;;
43606;SDS011;29197;44.788;10.366;2023-06-24T05:15:17;6.70;;;4.88;;
43606;SDS011;29197;44.788;10.366;2023-06-24T05:18:06;10.18;;;6.03;;
43606;SDS011;29197;44.788;10.366;2023-06-24T05:20:54;10.80;;;6.28;;
43606;SDS011;29197;44.788;10.366;2023-06-24T05:23:43;13.27;;;5.65;;
43606;SDS011;29197;44.788;10.366;2023-06-24T05:26:31;9.65;;;5.90;;
43606;SDS011;29197;44.788;10.366;2023-06-24T05:29:21;11.00;;;5.18;;
43606;SDS011;29197;44.788;10.366;2023-06-24T05:32:10;11.43;;;6.72;;
43606;SDS011;29197;44.788;10.366;2023-06-24T05:34:59;10.45;;;5.55;;
43606;SDS011;29197;44.788;10.366;2023-06-24T05:37:47;11.65;;;5.90;;
43606;SDS011;29197;44.788;10.366;2023-06-24T05:40:36;9.35;;;6.07;;
43606;SDS011;29197;44.788;10.366;2023-06-24T05:43:25;7.00;;;5.38;;
43606;SDS011;29197;44.788;10.366;2023-06-24T05:46:15;6.80;;;5.10;;
43606;SDS011;29197;44.788;10.366;2023-06-24T05:49:03;11.13;;;6.25;;
43606;SDS011;29197;44.788;10.366;2023-06-24T05:51:52;6.53;;;4.68;;
43606;SDS011;29197;44.788;10.366;2023-06-24T05:54:41;12.00;;;6.72;;
43606;SDS011;29197;44.788;10.366;2023-06-24T05:57:29;10.27;;;6.10;;
43606;SDS011;29197;44.788;10.366;2023-06-24T06:00:18;9.25;;;6.10;;
43606;SDS011;29197;44.788;10.366;2023-06-24T06:03:08;9.00;;;5.38;;
43606;SDS011;29197;44.788;10.366;2023-06-24T06:05:57;7.15;;;4.70;;
43606;SDS011;29197;44.788;10.366;2023-06-24T06:08:46;7.15;;;5.25;;
43606;SDS011;29197;44.788;10.366;2023-06-24T06:11:35;8.95;;;4.72;;
43606;SDS011;29197;44.788;10.366;2023-06-24T06:14:24;9.88;;;5.18;;
43606;SDS011;29197;44.788;10.366;2023-06-24T06:17:13;8.85;;;4.40;;
43606;SDS011;29197;44.788;10.366;2023-06-24T06:20:04;8.85;;;5.18;;
43606;SDS011;29197;44.788;10.366;2023-06-24T06:22:53;8.25;;;5.53;;
43606;SDS011;29197;44.788;10.366;2023-06-24T06:25:42;9.85;;;5.43;;
43606;SDS011;29197;44.788;10.366;2023-06-24T06:28:34;9.20;;;5.30;;
43606;SDS011;29197;44.788;10.366;2023-06-24T06:31:23;6.25;;;4.78;;
43606;SDS011;29197;44.788;10.366;2023-06-24T06:34:13;7.35;;;5.63;;
43606;SDS011;29197;44.788;10.366;2023-06-24T06:37:03;8.23;;;5.00;;
43606;SDS011;29197;44.788;10.366;2023-06-24T06:39:52;6.78;;;4.22;;
43606;SDS011;29197;44.788;10.366;2023-06-24T06:42:41;7.78;;;4.20;;
43606;SDS011;29197;44.788;10.366;2023-06-24T06:45:30;5.45;;;4.18;;
43606;SDS011;29197;44.788;10.366;2023-06-24T06:48:18;6.95;;;4.65;;
43606;SDS011;29197;44.788;10.366;2023-06-24T06:51:07;6.22;;;4.07;;
43606;SDS011;29197;44.788;10.366;2023-06-24T06:53:58;5.45;;;3.95;;
43606;SDS011;29197;44.788;10.366;2023-06-24T06:56:46;6.25;;;4.07;;
43606;SDS011;29197;44.788;10.366;2023-06-24T06:59:35;4.93;;;3.78;;
43606;SDS011;29197;44.788;10.366;2023-06-24T07:02:24;5.93;;;4.20;;
43606;SDS011;29197;44.788;10.366;2023-06-24T07:05:13;5.45;;;3.45;;
43606;SDS011;29197;44.788;10.366;2023-06-24T07:08:02;7.43;;;3.92;;
43606;SDS011;29197;44.788;10.366;2023-06-24T07:10:52;7.70;;;3.78;;
43606;SDS011;29197;44.788;10.366;2023-06-24T07:13:41;5.57;;;3.20;;
43606;SDS011;29197;44.788;10.366;2023-06-24T07:16:31;5.65;;;3.75;;
43606;SDS011;29197;44.788;10.366;2023-06-24T07:19:20;7.90;;;4.55;;
43606;SDS011;29197;44.788;10.366;2023-06-24T07:22:09;5.60;;;3.92;;
43606;SDS011;29197;44.788;10.366;2023-06-24T07:24:58;6.03;;;4.07;;
43606;SDS011;29197;44.788;10.366;2023-06-24T07:27:48;6.82;;;3.83;;
43606;SDS011;29197;44.788;10.366;2023-06-24T07:30:37;4.90;;;3.75;;
43606;SDS011;29197;44.788;10.366;2023-06-24T07:33:26;5.35;;;4.13;;
43606;SDS011;29197;44.788;10.366;2023-06-24T07:36:17;10.50;;;3.42;;
43606;SDS011;29197;44.788;10.366;2023-06-24T07:39:06;5.07;;;3.40;;
43606;SDS011;29197;44.788;10.366;2023-06-24T07:41:55;6.20;;;3.90;;
43606;SDS011;29197;44.788;10.366;2023-06-24T07:44:45;7.10;;;3.83;;
43606;SDS011;29197;44.788;10.366;2023-06-24T07:47:34;4.88;;;3.40;;
43606;SDS011;29197;44.788;10.366;2023-06-24T07:50:23;3.97;;;3.10;;
43606;SDS011;29197;44.788;10.366;2023-06-24T07:53:12;5.22;;;3.45;;
43606;SDS011;29197;44.788;10.366;2023-06-24T07:56:01;4.25;;;3.22;;
43606;SDS011;29197;44.788;10.366;2023-06-24T07:58:49;4.38;;;3.08;;
43606;SDS011;29197;44.788;10.366;2023-06-24T08:01:39;4.15;;;3.03;;
43606;SDS011;29197;44.788;10.366;2023-06-24T08:04:28;6.95;;;3.47;;
43606;SDS011;29197;44.788;10.366;2023-06-24T08:07:17;7.10;;;3.47;;
43606;SDS011;29197;44.788;10.366;2023-06-24T08:10:06;10.18;;;4.60;;
43606;SDS011;29197;44.788;10.366;2023-06-24T08:12:55;5.72;;;3.70;;
43606;SDS011;29197;44.788;10.366;2023-06-24T08:15:44;7.60;;;4.85;;
43606;SDS011;29197;44.788;10.366;2023-06-24T08:18:34;5.90;;;2.90;;
43606;SDS011;29197;44.788;10.366;2023-06-24T08:21:22;5.50;;;3.60;;
43606;SDS011;29197;44.788;10.366;2023-06-24T08:24:11;7.32;;;3.33;;
43606;SDS011;29197;44.788;10.366;2023-06-24T08:26:59;5.05;;;3.10;;
43606;SDS011;29197;44.788;10.366;2023-06-24T08:29:48;5.38;;;3.33;;
43606;SDS011;29197;44.788;10.366;2023-06-24T08:32:36;5.18;;;3.70;;
43606;SDS011;29197;44.788;10.366;2023-06-24T08:35:26;2.80;;;2.42;;
43606;SDS011;29197;44.788;10.366;2023-06-24T08:38:15;7.10;;;3.78;;
43606;SDS011;29197;44.788;10.366;2023-06-24T08:41:03;7.22;;;3.45;;
43606;SDS011;29197;44.788;10.366;2023-06-24T08:43:52;4.80;;;3.00;;
43606;SDS011;29197;44.788;10.366;2023-06-24T08:46:41;6.70;;;3.67;;
43606;SDS011;29197;44.788;10.366;2023-06-24T08:49:30;8.18;;;3.45;;
43606;SDS011;29197;44.788;10.366;2023-06-24T08:52:20;6.00;;;3.55;;
43606;SDS011;29197;44.788;10.366;2023-06-24T08:55:13;4.78;;;3.17;;
43606;SDS011;29197;44.788;10.366;2023-06-24T08:58:04;4.68;;;3.15;;
43606;SDS011;29197;44.788;10.366;2023-06-24T09:00:53;21.73;;;8.43;;
43606;SDS011;29197;44.788;10.366;2023-06-24T09:03:42;19.58;;;6.30;;
43606;SDS011;29197;44.788;10.366;2023-06-24T09:06:31;91.97;;;22.65;;
43606;SDS011;29197;44.788;10.366;2023-06-24T09:09:21;21.63;;;7.25;;
43606;SDS011;29197;44.788;10.366;2023-06-24T09:12:11;7.70;;;3.00;;
43606;SDS011;29197;44.788;10.366;2023-06-24T09:15:02;3.42;;;2.63;;
43606;SDS011;29197;44.788;10.366;2023-06-24T09:17:51;20.38;;;5.43;;
43606;SDS011;29197;44.788;10.366;2023-06-24T09:20:41;4.65;;;2.88;;
43606;SDS011;29197;44.788;10.366;2023-06-24T09:23:35;3.65;;;2.80;;
43606;SDS011;29197;44.788;10.366;2023-06-24T09:26:25;3.78;;;2.65;;
43606;SDS011;29197;44.788;10.366;2023-06-24T09:29:16;5.07;;;3.50;;
43606;SDS011;29197;44.788;10.366;2023-06-24T09:32:05;4.25;;;2.70;;
43606;SDS011;29197;44.788;10.366;2023-06-24T09:34:54;3.13;;;2.50;;
43606;SDS011;29197;44.788;10.366;2023-06-24T09:37:44;4.68;;;2.42;;
43606;SDS011;29197;44.788;10.366;2023-06-24T09:40:36;3.45;;;2.50;;
43606;SDS011;29197;44.788;10.366;2023-06-24T09:43:28;6.03;;;3.28;;
43606;SDS011;29197;44.788;10.366;2023-06-24T09:46:17;3.80;;;2.65;;
43606;SDS011;29197;44.788;10.366;2023-06-24T09:49:06;4.63;;;2.55;;
43606;SDS011;29197;44.788;10.366;2023-06-24T09:51:55;2.72;;;2.40;;
43606;SDS011;29197;44.788;10.366;2023-06-24T09:54:45;4.53;;;2.47;;
43606;SDS011;29197;44.788;10.366;2023-06-24T09:57:35;5.22;;;2.72;;
43606;SDS011;29197;44.788;10.366;2023-06-24T10:00:25;4.20;;;2.58;;
43606;SDS011;29197;44.788;10.366;2023-06-24T10:03:14;5.75;;;2.22;;
43606;SDS011;29197;44.788;10.366;2023-06-24T10:06:04;3.85;;;2.60;;
43606;SDS011;29197;44.788;10.366;2023-06-24T10:08:53;4.13;;;2.08;;
43606;SDS011;29197;44.788;10.366;2023-06-24T10:11:42;4.20;;;2.50;;
43606;SDS011;29197;44.788;10.366;2023-06-24T10:14:31;2.55;;;2.17;;
43606;SDS011;29197;44.788;10.366;2023-06-24T10:17:21;3.70;;;2.38;;
43606;SDS011;29197;44.788;10.366;2023-06-24T10:20:11;4.03;;;2.67;;
43606;SDS011;29197;44.788;10.366;2023-06-24T10:23:00;5.40;;;2.42;;
43606;SDS011;29197;44.788;10.366;2023-06-24T10:25:54;3.22;;;2.25;;
43606;SDS011;29197;44.788;10.366;2023-06-24T10:31:50;5.60;;;2.55;;
43606;SDS011;29197;44.788;10.366;2023-06-24T10:34:42;3.95;;;2.97;;
43606;SDS011;29197;44.788;10.366;2023-06-24T10:37:31;3.08;;;2.33;;
43606;SDS011;29197;44.788;10.366;2023-06-24T10:40:28;4.63;;;2.15;;
43606;SDS011;29197;44.788;10.366;2023-06-24T10:43:24;3.70;;;2.30;;
43606;SDS011;29197;44.788;10.366;2023-06-24T10:46:14;4.75;;;2.92;;
43606;SDS011;29197;44.788;10.366;2023-06-24T10:49:03;3.15;;;2.20;;
43606;SDS011;29197;44.788;10.366;2023-06-24T10:51:54;7.15;;;2.45;;
43606;SDS011;29197;44.788;10.366;2023-06-24T10:54:43;4.03;;;2.40;;
43606;SDS011;29197;44.788;10.366;2023-06-24T10:57:31;2.97;;;2.20;;
43606;SDS011;29197;44.788;10.366;2023-06-24T11:00:20;3.58;;;2.47;;
43606;SDS011;29197;44.788;10.366;2023-06-24T11:03:10;3.05;;;2.60;;
43606;SDS011;29197;44.788;10.366;2023-06-24T11:05:59;2.88;;;2.35;;
43606;SDS011;29197;44.788;10.366;2023-06-24T11:08:54;3.28;;;2.17;;
43606;SDS011;29197;44.788;10.366;2023-06-24T11:11:50;3.00;;;2.70;;
43606;SDS011;29197;44.788;10.366;2023-06-24T11:14:38;3.60;;;2.35;;
43606;SDS011;29197;44.788;10.366;2023-06-24T11:17:27;2.88;;;2.50;;
43606;SDS011;29197;44.788;10.366;2023-06-24T11:20:16;4.57;;;2.92;;
43606;SDS011;29197;44.788;10.366;2023-06-24T11:23:08;4.18;;;2.85;;
43606;SDS011;29197;44.788;10.366;2023-06-24T11:25:59;3.03;;;2.28;;
43606;SDS011;29197;44.788;10.366;2023-06-24T11:28:51;5.13;;;2.92;;
43606;SDS011;29197;44.788;10.366;2023-06-24T11:31:39;3.83;;;2.80;;
43606;SDS011;29197;44.788;10.366;2023-06-24T11:34:28;3.97;;;2.65;;
43606;SDS011;29197;44.788;10.366;2023-06-24T11:37:18;5.55;;;2.90;;
43606;SDS011;29197;44.788;10.366;2023-06-24T11:40:07;4.18;;;2.97;;
43606;SDS011;29197;44.788;10.366;2023-06-24T11:42:59;3.42;;;2.80;;
43606;SDS011;29197;44.788;10.366;2023-06-24T11:45:48;2.55;;;2.08;;
43606;SDS011;29197;44.788;10.366;2023-06-24T11:48:39;4.13;;;2.60;;
43606;SDS011;29197;44.788;10.366;2023-06-24T11:51:28;4.10;;;2.60;;
43606;SDS011;29197;44.788;10.366;2023-06-24T11:54:17;2.92;;;2.60;;
43606;SDS011;29197;44.788;10.366;2023-06-24T11:57:08;4.78;;;3.28;;
43606;SDS011;29197;44.788;10.366;2023-06-24T12:00:04;3.38;;;2.40;;
43606;SDS011;29197;44.788;10.366;2023-06-24T12:03:01;3.95;;;2.35;;
43606;SDS011;29197;44.788;10.366;2023-06-24T12:05:57;4.00;;;2.50;;
43606;SDS011;29197;44.788;10.366;2023-06-24T12:08:45;2.85;;;2.40;;
43606;SDS011;29197;44.788;10.366;2023-06-24T12:11:38;5.63;;;2.60;;
43606;SDS011;29197;44.788;10.366;2023-06-24T12:14:27;3.25;;;2.42;;
43606;SDS011;29197;44.788;10.366;2023-06-24T12:17:17;3.65;;;2.90;;
43606;SDS011;29197;44.788;10.366;2023-06-24T12:20:06;3.88;;;2.58;;
43606;SDS011;29197;44.788;10.366;2023-06-24T12:22:56;3.13;;;2.40;;
43606;SDS011;29197;44.788;10.366;2023-06-24T12:25:44;2.90;;;2.42;;
43606;SDS011;29197;44.788;10.366;2023-06-24T12:28:33;2.55;;;2.22;;
43606;SDS011;29197;44.788;10.366;2023-06-24T12:31:21;3.85;;;2.50;;
43606;SDS011;29197;44.788;10.366;2023-06-24T12:34:12;4.05;;;2.55;;
43606;SDS011;29197;44.788;10.366;2023-06-24T12:37:01;3.92;;;2.40;;
43606;SDS011;29197;44.788;10.366;2023-06-24T12:39:49;3.13;;;2.10;;
43606;SDS011;29197;44.788;10.366;2023-06-24T12:42:39;4.40;;;2.22;;
43606;SDS011;29197;44.788;10.366;2023-06-24T12:45:27;3.45;;;2.10;;
43606;SDS011;29197;44.788;10.366;2023-06-24T12:48:16;2.60;;;1.92;;
43606;SDS011;29197;44.788;10.366;2023-06-24T12:51:06;3.47;;;2.45;;
43606;SDS011;29197;44.788;10.366;2023-06-24T12:53:55;4.65;;;2.80;;
43606;SDS011;29197;44.788;10.366;2023-06-24T12:56:44;5.00;;;2.60;;
43606;SDS011;29197;44.788;10.366;2023-06-24T12:59:33;5.25;;;2.50;;
43606;SDS011;29197;44.788;10.366;2023-06-24T13:02:21;3.28;;;2.40;;
43606;SDS011;29197;44.788;10.366;2023-06-24T13:05:10;2.75;;;2.25;;
43606;SDS011;29197;44.788;10.366;2023-06-24T13:08:00;3.25;;;2.25;;
43606;SDS011;29197;44.788;10.366;2023-06-24T13:10:49;2.78;;;2.25;;
43606;SDS011;29197;44.788;10.366;2023-06-24T13:13:38;3.10;;;2.13;;
43606;SDS011;29197;44.788;10.366;2023-06-24T13:16:26;3.47;;;2.00;;
43606;SDS011;29197;44.788;10.366;2023-06-24T13:19:15;3.55;;;2.17;;
43606;SDS011;29197;44.788;10.366;2023-06-24T13:22:04;2.88;;;2.25;;
43606;SDS011;29197;44.788;10.366;2023-06-24T13:24:54;2.42;;;2.10;;
43606;SDS011;29197;44.788;10.366;2023-06-24T13:27:43;3.53;;;2.58;;
43606;SDS011;29197;44.788;10.366;2023-06-24T13:30:32;3.33;;;2.10;;
43606;SDS011;29197;44.788;10.366;2023-06-24T13:33:21;2.85;;;2.25;;
43606;SDS011;29197;44.788;10.366;2023-06-24T13:36:12;3.72;;;2.33;;
43606;SDS011;29197;44.788;10.366;2023-06-24T13:39:16;2.80;;;2.20;;
43606;SDS011;29197;44.788;10.366;2023-06-24T13:42:07;2.20;;;1.92;;
43606;SDS011;29197;44.788;10.366;2023-06-24T13:44:55;2.97;;;2.22;;
43606;SDS011;29197;44.788;10.366;2023-06-24T13:47:44;3.38;;;2.15;;
43606;SDS011;29197;44.788;10.366;2023-06-24T13:50:33;3.33;;;2.30;;
43606;SDS011;29197;44.788;10.366;2023-06-24T13:53:22;4.18;;;2.15;;
43606;SDS011;29197;44.788;10.366;2023-06-24T13:56:10;2.05;;;1.70;;
43606;SDS011;29197;44.788;10.366;2023-06-24T13:59:00;3.05;;;1.83;;
43606;SDS011;29197;44.788;10.366;2023-06-24T14:01:49;2.88;;;1.70;;
43606;SDS011;29197;44.788;10.366;2023-06-24T14:04:40;4.78;;;1.63;;
43606;SDS011;29197;44.788;10.366;2023-06-24T14:07:29;2.10;;;1.85;;
43606;SDS011;29197;44.788;10.366;2023-06-24T14:10:18;8.05;;;2.20;;
43606;SDS011;29197;44.788;10.366;2023-06-24T14:13:06;2.42;;;1.80;;
43606;SDS011;29197;44.788;10.366;2023-06-24T14:15:57;3.25;;;2.20;;
43606;SDS011;29197;44.788;10.366;2023-06-24T14:18:46;3.33;;;1.90;;
43606;SDS011;29197;44.788;10.366;2023-06-24T14:21:35;2.88;;;2.30;;
43606;SDS011;29197;44.788;10.366;2023-06-24T14:24:24;2.17;;;1.85;;
43606;SDS011;29197;44.788;10.366;2023-06-24T14:27:12;3.50;;;1.90;;
43606;SDS011;29197;44.788;10.366;2023-06-24T14:30:01;2.10;;;1.65;;
43606;SDS011;29197;44.788;10.366;2023-06-24T14:32:52;2.33;;;1.67;;
43606;SDS011;29197;44.788;10.366;2023-06-24T14:35:40;4.18;;;2.80;;
43606;SDS011;29197;44.788;10.366;2023-06-24T14:38:30;3.22;;;1.70;;
43606;SDS011;29197;44.788;10.366;2023-06-24T14:41:18;4.25;;;2.35;;
43606;SDS011;29197;44.788;10.366;2023-06-24T14:44:07;4.05;;;1.60;;
43606;SDS011;29197;44.788;10.366;2023-06-24T14:46:56;2.25;;;2.00;;
43606;SDS011;29197;44.788;10.366;2023-06-24T14:49:46;2.13;;;1.80;;
43606;SDS011;29197;44.788;10.366;2023-06-24T14:52:34;2.10;;;1.80;;
43606;SDS011;29197;44.788;10.366;2023-06-24T14:55:23;1.77;;;1.40;;
43606;SDS011;29197;44.788;10.366;2023-06-24T14:58:11;1.60;;;1.50;;
43606;SDS011;29197;44.788;10.366;2023-06-24T15:01:02;2.90;;;1.73;;
43606;SDS011;29197;44.788;10.366;2023-06-24T15:03:51;2.10;;;1.90;;
43606;SDS011;29197;44.788;10.366;2023-06-24T15:06:41;1.98;;;1.65;;
43606;SDS011;29197;44.788;10.366;2023-06-24T15:09:29;2.15;;;1.58;;
43606;SDS011;29197;44.788;10.366;2023-06-24T15:12:18;1.67;;;1.50;;
43606;SDS011;29197;44.788;10.366;2023-06-24T15:15:07;2.60;;;1.90;;
43606;SDS011;29197;44.788;10.366;2023-06-24T15:17:56;5.38;;;2.15;;
43606;SDS011;29197;44.788;10.366;2023-06-24T15:20:47;3.95;;;1.92;;
43606;SDS011;29197;44.788;10.366;2023-06-24T15:23:37;1.50;;;1.40;;
43606;SDS011;29197;44.788;10.366;2023-06-24T15:26:25;4.30;;;2.35;;
43606;SDS011;29197;44.788;10.366;2023-06-24T15:29:14;2.83;;;1.92;;
43606;SDS011;29197;44.788;10.366;2023-06-24T15:32:03;2.17;;;1.83;;
43606;SDS011;29197;44.788;10.366;2023-06-24T15:34:52;3.28;;;2.20;;
43606;SDS011;29197;44.788;10.366;2023-06-24T15:37:41;2.42;;;1.98;;
43606;SDS011;29197;44.788;10.366;2023-06-24T15:40:31;4.32;;;1.88;;
43606;SDS011;29197;44.788;10.366;2023-06-24T15:43:20;3.10;;;2.30;;
43606;SDS011;29197;44.788;10.366;2023-06-24T15:46:09;5.20;;;2.00;;
43606;SDS011;29197;44.788;10.366;2023-06-24T15:48:58;2.40;;;1.90;;
43606;SDS011;29197;44.788;10.366;2023-06-24T15:51:46;2.85;;;2.20;;
43606;SDS011;29197;44.788;10.366;2023-06-24T15:54:35;2.22;;;1.83;;
43606;SDS011;29197;44.788;10.366;2023-06-24T15:57:25;1.92;;;1.70;;
43606;SDS011;29197;44.788;10.366;2023-06-24T16:00:14;3.47;;;1.95;;
43606;SDS011;29197;44.788;10.366;2023-06-24T16:03:03;2.25;;;1.90;;
43606;SDS011;29197;44.788;10.366;2023-06-24T16:05:51;2.78;;;2.25;;
43606;SDS011;29197;44.788;10.366;2023-06-24T16:08:40;3.17;;;2.25;;
43606;SDS011;29197;44.788;10.366;2023-06-24T16:11:29;2.65;;;1.85;;
43606;SDS011;29197;44.788;10.366;2023-06-24T16:14:19;3.38;;;2.03;;
43606;SDS011;29197;44.788;10.366;2023-06-24T16:17:07;4.40;;;1.92;;
43606;SDS011;29197;44.788;10.366;2023-06-24T16:19:56;2.50;;;2.00;;
43606;SDS011;29197;44.788;10.366;2023-06-24T16:22:45;3.65;;;1.65;;
43606;SDS011;29197;44.788;10.366;2023-06-24T16:25:34;1.95;;;1.73;;
43606;SDS011;29197;44.788;10.366;2023-06-24T16:28:22;2.90;;;1.77;;
43606;SDS011;29197;44.788;10.366;2023-06-24T16:31:12;2.83;;;2.10;;
43606;SDS011;29197;44.788;10.366;2023-06-24T16:34:01;3.10;;;2.10;;
43606;SDS011;29197;44.788;10.366;2023-06-24T16:36:49;2.30;;;2.08;;
43606;SDS011;29197;44.788;10.366;2023-06-24T16:39:38;4.00;;;2.00;;
43606;SDS011;29197;44.788;10.366;2023-06-24T16:42:27;3.22;;;1.77;;
43606;SDS011;29197;44.788;10.366;2023-06-24T16:45:15;3.00;;;2.00;;
43606;SDS011;29197;44.788;10.366;2023-06-24T16:48:06;2.83;;;1.85;;